首页
METAR-TAF:

METAR-TAF

机场 :

Bojnord, 伊朗

纬度: 37-28N, 经度: 057-20E, 海拔: 1074米

当前天气观测

该预报发布于23分钟前的16:00 UTC
风速2节,风向西
温度 3°C
湿度 87%
气压 1020 hPa
能见度10公里或以上
少量云层高于1000英尺

METAR: OIMN 121600Z 28002KT 9999 FEW010 03/01 Q1020 RESH

时间: 19:53 (16:23 UTC)


TAF: 丢失

超过4000个机场的气象观测和天气预报(METAR&TAF报告)。

可查询的气象台以黄色和红色小点在地图上表示。

将鼠标移到小点上方,可查看气象台名称。

然后点击查看天气观测和预报。

如需切换地图:点击带黑十字的绿色按钮放大地图;点击带横线的绿色按钮缩小地图;或者点击绿色箭头查看邻近地区的地图。


METAR-TAF: